Time;durP1;ratioP1;P1;durP2;ratioP2;P2;SDS_P1;SDS_P2;PMS_P1;PMS_P2;Temp;Humidity;BMP_temperature;BMP_pressure;BME280_temperature;BME280_humidity;BME280_pressure;Samples;Min_cycle;Max_cycle;Signal;HPM_P1;HPM_P2
2022/08/03 00:01:17;;;;;;;5.47;1.57;;;;;;;19.31;100.00;62871.09;5072630;28;20281;-74
2022/08/03 00:03:44;;;;;;;4.23;2.00;;;;;;;19.23;100.00;62861.91;5072712;28;20199;-75
2022/08/03 00:06:12;;;;;;;2.03;1.80;;;;;;;19.19;100.00;62858.13;5076290;28;20196;-76
2022/08/03 00:08:40;;;;;;;2.87;1.50;;;;;;;19.10;100.00;62845.81;5072824;28;20200;-75
2022/08/03 00:11:07;;;;;;;1.60;1.50;;;;;;;18.91;100.00;62827.88;5072681;28;20547;-75
2022/08/03 00:13:34;;;;;;;2.23;1.63;;;;;;;19.11;100.00;62849.47;5072592;28;20200;-76
2022/08/03 00:16:01;;;;;;;3.73;1.70;;;;;;;19.10;100.00;62845.81;5085971;28;20206;-75
2022/08/03 00:18:32;;;;;;;3.40;2.00;;;;;;;18.98;100.00;62832.84;5072716;28;20203;-77
2022/08/03 00:20:59;;;;;;;1.50;1.30;;;;;;;19.01;100.00;62838.69;5085578;28;20210;-75
2022/08/03 00:23:26;;;;;;;5.17;1.70;;;;;;;19.11;100.00;62849.47;5072184;28;20204;-76
2022/08/03 00:25:55;;;;;;;1.83;1.70;;;;;;;19.14;100.00;62847.53;5082418;28;20215;-75
2022/08/03 00:28:21;;;;;;;1.67;1.57;;;;;;;18.61;100.00;62789.78;5092859;28;20224;-75
2022/08/03 00:30:48;;;;;;;6.50;1.90;;;;;;;19.09;100.00;62842.16;5091891;28;20282;-74
2022/08/03 00:33:16;;;;;;;2.67;1.77;;;;;;;18.82;100.00;62812.97;5088631;28;20349;-74
2022/08/03 00:35:43;;;;;;;1.77;1.67;;;;;;;19.02;100.00;62839.75;5072708;28;20200;-75
2022/08/03 00:38:10;;;;;;;5.30;1.87;;;;;;;19.02;100.00;62837.16;5086568;28;20556;-76
2022/08/03 00:40:38;;;;;;;2.33;1.70;;;;;;;19.06;100.00;62844.06;5072790;28;20200;-75
2022/08/03 00:43:09;;;;;;;2.20;1.70;;;;;;;17.73;100.00;62706.72;5077168;28;20199;-74
2022/08/03 00:45:38;;;;;;;4.93;1.67;;;;;;;18.92;100.00;62826.38;5080197;28;20200;-76
2022/08/03 00:48:10;;;;;;;2.13;1.50;;;;;;;18.89;100.00;62823.13;5091039;28;20223;-76
2022/08/03 00:50:42;;;;;;;2.23;1.67;;;;;;;18.93;100.00;62824.31;5078777;28;20225;-75
2022/08/03 00:53:12;;;;;;;3.33;1.60;;;;;;;17.61;100.00;62686.03;5060255;28;20655;-77
2022/08/03 00:55:40;;;;;;;2.50;2.30;;;;;;;18.77;100.00;62812.75;5070852;28;20283;-75
2022/08/03 00:58:10;;;;;;;4.13;2.57;;;;;;;18.72;100.00;62804.75;5072349;28;20219;-75
2022/08/03 01:00:39;;;;;;;4.73;2.70;;;;;;;18.68;100.00;62803.03;5071930;28;20283;-74
2022/08/03 01:03:07;;;;;;;4.43;3.03;;;;;;;18.55;100.00;62789.53;5071945;28;20200;-74
2022/08/03 01:05:45;;;;;;;4.80;2.77;;;;;;;18.82;100.00;62818.16;5071586;28;20196;-73
2022/08/03 01:08:23;;;;;;;7.63;3.90;;;;;;;18.13;100.00;62738.50;5071838;28;20285;-76
2022/08/03 01:10:57;;;;;;;4.33;3.63;;;;;;;18.32;100.00;62764.69;5071758;28;20270;-76
2022/08/03 01:13:34;;;;;;;4.00;3.27;;;;;;;18.14;100.00;62744.72;5071598;28;20199;-76
2022/08/03 01:16:06;;;;;;;5.43;3.27;;;;;;;18.12;100.00;62739.97;5067065;28;20195;-76
2022/08/03 01:18:41;;;;;;;4.00;3.20;;;;;;;18.19;100.00;62747.53;5091241;28;20643;-77
2022/08/03 01:21:13;;;;;;;3.97;3.40;;;;;;;17.94;100.00;62723.13;5077930;28;20210;-74
2022/08/03 01:24:03;;;;;;;6.53;3.40;;;;;;;18.00;100.00;62724.44;5078437;28;20196;-74
2022/08/03 01:26:47;;;;;;;10.83;3.70;;;;;;;17.90;100.00;62718.81;5054088;28;20203;-75
2022/08/03 01:29:53;;;;;;;5.63;4.20;;;;;;;17.87;100.00;62715.59;5089824;28;20191;-75
2022/08/03 01:32:25;;;;;;;7.77;4.17;;;;;;;17.98;100.00;62725.41;5091068;28;20231;-75
2022/08/03 01:34:58;;;;;;;4.63;3.50;;;;;;;17.93;100.00;62720.00;5082197;28;20200;-75
2022/08/03 01:37:32;;;;;;;5.77;3.63;;;;;;;17.96;100.00;62723.25;5071673;28;20574;-75
2022/08/03 01:40:02;;;;;;;5.83;3.60;;;;;;;17.80;100.00;62713.19;5071443;28;20200;-76
2022/08/03 01:42:31;;;;;;;5.33;3.23;;;;;;;17.65;100.00;62692.91;5071365;28;20199;-77
2022/08/03 01:45:02;;;;;;;5.37;3.73;;;;;;;17.66;100.00;62688.84;5073446;28;20210;-75
2022/08/03 01:47:30;;;;;;;7.00;3.33;;;;;;;17.54;100.00;62672.78;5079791;28;20223;-75
2022/08/03 01:49:58;;;;;;;4.07;3.20;;;;;;;16.78;100.00;62593.94;5082031;28;20202;-76
2022/08/03 01:52:27;;;;;;;5.90;3.13;;;;;;;17.72;100.00;62694.78;5090823;28;20191;-74
2022/08/03 01:54:55;;;;;;;6.33;3.57;;;;;;;17.67;100.00;62694.53;5091438;28;20196;-77
2022/08/03 01:57:24;;;;;;;5.90;3.30;;;;;;;17.68;100.00;62690.47;5089584;28;20195;-75
2022/08/03 01:59:55;;;;;;;4.17;3.50;;;;;;;17.11;100.00;62634.66;5079226;28;20282;-75
2022/08/03 02:02:27;;;;;;;3.77;3.40;;;;;;;17.62;100.00;62689.69;5075375;28;20204;-74
2022/08/03 02:04:56;;;;;;;3.87;3.37;;;;;;;17.39;100.00;62659.72;5072375;28;20196;-76
2022/08/03 02:07:28;;;;;;;6.07;3.50;;;;;;;17.31;100.00;62656.22;5091739;28;20219;-76
2022/08/03 02:09:57;;;;;;;4.57;3.70;;;;;;;17.31;100.00;62656.22;5095320;28;20213;-73
2022/08/03 02:12:26;;;;;;;6.20;3.40;;;;;;;17.09;100.00;62631.97;5094909;28;20200;-75
2022/08/03 02:14:56;;;;;;;6.83;3.80;;;;;;;17.59;100.00;62681.28;5079362;28;20201;-75
2022/08/03 02:17:28;;;;;;;11.20;3.93;;;;;;;17.58;100.00;62682.81;5074860;28;20727;-76
2022/08/03 02:19:59;;;;;;;3.43;2.77;;;;;;;17.02;100.00;62619.81;5092972;28;20195;-74
2022/08/03 02:22:27;;;;;;;4.07;3.10;;;;;;;17.80;100.00;62703.41;5082800;28;20211;-76
2022/08/03 02:24:54;;;;;;;5.20;3.13;;;;;;;17.80;100.00;62708.56;5093226;28;20219;-75
2022/08/03 02:27:24;;;;;;;9.40;2.93;;;;;;;17.86;100.00;62706.78;5083290;28;20733;-76
2022/08/03 02:29:57;;;;;;;3.37;2.50;;;;;;;18.01;100.00;62728.13;5074500;28;20220;-76
2022/08/03 02:32:32;;;;;;;2.93;2.50;;;;;;;18.00;100.00;62727.03;5074848;28;20266;-74
2022/08/03 02:35:01;;;;;;;2.50;2.10;;;;;;;17.98;100.00;62724.88;5075414;28;20208;-75
2022/08/03 02:37:32;;;;;;;4.93;2.43;;;;;;;18.00;100.00;62727.03;5075073;28;20197;-78
2022/08/03 02:40:03;;;;;;;2.10;1.90;;;;;;;17.90;100.00;62718.81;5075866;28;20207;-74
2022/08/03 02:42:33;;;;;;;2.30;2.07;;;;;;;17.82;100.00;62715.88;5080587;28;20210;-76
2022/08/03 02:45:05;;;;;;;1.93;1.70;;;;;;;17.69;100.00;62697.25;5078377;28;20687;-77
2022/08/03 02:47:37;;;;;;;1.90;1.80;;;;;;;17.68;100.00;62693.59;5074394;28;20228;-76
2022/08/03 02:50:06;;;;;;;1.97;1.83;;;;;;;17.67;100.00;62689.94;5091863;28;20582;-77
2022/08/03 02:52:35;;;;;;;4.53;2.20;;;;;;;17.62;100.00;62684.53;5093844;28;20196;-76
2022/08/03 02:55:08;;;;;;;1.90;1.80;;;;;;;17.35;100.00;62657.97;5093915;28;20196;-79
2022/08/03 02:57:37;;;;;;;2.30;2.10;;;;;;;17.26;100.00;62643.13;5090877;28;20645;-76
2022/08/03 03:00:07;;;;;;;2.07;1.87;;;;;;;17.46;100.00;62672.41;5084028;28;20198;-74
2022/08/03 03:02:37;;;;;;;3.57;2.10;;;;;;;17.62;100.00;62687.13;5093266;28;20192;-74
2022/08/03 03:05:08;;;;;;;2.50;2.30;;;;;;;16.96;100.00;62615.94;5094268;28;20199;-75
2022/08/03 03:07:36;;;;;;;3.00;2.10;;;;;;;17.61;100.00;62683.44;5073765;28;20572;-77
2022/08/03 03:10:05;;;;;;;4.20;2.00;;;;;;;17.73;100.00;62701.56;5073913;28;20250;-75
2022/08/03 03:12:34;;;;;;;3.37;2.00;;;;;;;17.51;100.00;62672.66;5088923;28;20207;-75
2022/08/03 03:15:02;;;;;;;2.53;2.10;;;;;;;16.60;100.00;62575.06;5094153;28;20242;-76
2022/08/03 03:17:31;;;;;;;4.37;2.10;;;;;;;17.36;100.00;62655.94;5092812;28;20215;-74
2022/08/03 03:20:01;;;;;;;3.00;2.10;;;;;;;17.30;100.00;62654.63;5092738;28;20283;-78
2022/08/03 03:22:29;;;;;;;5.90;2.20;;;;;;;17.53;100.00;62674.81;5092367;28;20192;-75
2022/08/03 03:24:58;;;;;;;5.10;2.60;;;;;;;17.55;100.00;62676.97;5092242;28;20281;-74
2022/08/03 03:27:27;;;;;;;5.33;3.23;;;;;;;17.55;100.00;62676.97;5089918;28;20187;-76
2022/08/03 03:29:55;;;;;;;6.27;2.87;;;;;;;16.98;100.00;62620.66;5073618;28;20674;-77
2022/08/03 03:32:23;;;;;;;7.63;3.13;;;;;;;17.36;100.00;62656.47;5078921;28;20228;-73
2022/08/03 03:34:51;;;;;;;11.17;3.60;;;;;;;17.26;100.00;62648.28;5078008;28;20762;-74
2022/08/03 03:37:19;;;;;;;7.57;3.10;;;;;;;17.14;100.00;62634.78;5076241;28;20662;-76
2022/08/03 03:39:47;;;;;;;6.00;3.33;;;;;;;16.99;100.00;62619.16;5086748;28;20193;-75
2022/08/03 03:42:14;;;;;;;9.33;3.60;;;;;;;17.05;100.00;62625.63;5073755;28;20196;-75
2022/08/03 03:44:41;;;;;;;6.53;3.27;;;;;;;16.95;100.00;62609.69;5073679;28;20573;-74
2022/08/03 03:47:10;;;;;;;5.63;3.93;;;;;;;17.11;100.00;62629.50;5073345;28;20200;-75
2022/08/03 03:49:37;;;;;;;9.93;3.40;;;;;;;17.09;100.00;62632.50;5086201;28;20606;-76
2022/08/03 03:52:04;;;;;;;7.83;3.53;;;;;;;17.15;100.00;62633.81;5082303;28;20214;-76
2022/08/03 03:54:41;;;;;;;5.07;3.30;;;;;;;17.27;100.00;62651.91;5088016;28;20623;-75
2022/08/03 03:57:09;;;;;;;10.87;3.87;;;;;;;17.22;100.00;62643.41;5084509;28;20571;-74
2022/08/03 03:59:38;;;;;;;10.50;4.40;;;;;;;17.46;100.00;62667.25;5078705;28;20214;-75
2022/08/03 04:02:06;;;;;;;9.73;3.80;;;;;;;17.62;100.00;62689.69;5079695;28;20200;-77
2022/08/03 04:12:53;;;;;;;4.07;2.30;;;;;;;18.02;100.00;62726.59;5072774;28;20207;-74
2022/08/03 04:15:22;;;;;;;4.03;2.40;;;;;;;18.08;100.00;62733.63;5072340;28;20200;-76
2022/08/03 04:17:54;;;;;;;4.00;2.60;;;;;;;18.18;100.00;62749.03;5072470;28;20200;-75
2022/08/03 04:20:24;;;;;;;4.23;2.50;;;;;;;18.38;100.00;62768.03;5072376;28;20208;-75
2022/08/03 04:22:52;;;;;;;5.23;2.63;;;;;;;18.55;100.00;62786.94;5090783;28;20206;-75
2022/08/03 04:25:25;;;;;;;4.47;2.47;;;;;;;18.12;100.00;62737.41;5079826;28;20319;-75
2022/08/03 04:27:54;;;;;;;4.03;2.60;;;;;;;17.86;100.00;62712.47;5059158;28;20595;-74
2022/08/03 04:30:23;;;;;;;4.23;2.27;;;;;;;18.57;100.00;62791.16;5072388;28;20675;-74
2022/08/03 04:32:51;;;;;;;6.67;2.50;;;;;;;17.96;100.00;62720.13;5072369;28;20235;-75
2022/08/03 04:35:19;;;;;;;22.93;4.07;;;;;;;18.92;100.00;62823.78;5071750;28;20659;-74
2022/08/03 04:37:49;;;;;;;13.10;3.20;;;;;;;19.25;100.00;62864.59;5080318;28;20199;-74
2022/08/03 04:40:24;;;;;;;12.00;2.90;;;;;;;18.60;100.00;62789.22;5082477;28;20230;-74
2022/08/03 04:42:55;;;;;;;3.67;2.43;;;;;;;19.59;100.00;62895.09;5089451;28;20194;-75
2022/08/03 04:45:23;;;;;;;2.30;2.10;;;;;;;19.97;100.00;62938.75;5073591;28;20200;-74
2022/08/03 04:47:50;;;;;;;5.50;2.37;;;;;;;19.79;100.00;62922.44;5072162;28;20196;-74
2022/08/03 04:50:17;;;;;;;9.07;2.53;;;;;;;20.27;100.00;62973.25;5072272;28;20223;-76
2022/08/03 04:52:45;;;;;;;3.20;2.40;;;;;;;20.27;100.00;62968.63;5072119;28;20207;-76
2022/08/03 04:55:12;;;;;;;8.10;3.37;;;;;;;20.45;100.00;62993.25;5072472;28;20270;-75
2022/08/03 04:57:41;;;;;;;5.33;3.00;;;;;;;20.57;100.00;63001.06;5071673;28;20208;-75
2022/08/03 05:00:09;;;;;;;5.93;2.90;;;;;;;20.53;100.00;62996.19;5071872;28;20627;-74
2022/08/03 05:02:37;;;;;;;9.10;3.77;;;;;;;20.53;100.00;63001.91;5071570;28;20653;-74
2022/08/03 05:05:05;;;;;;;11.53;4.90;;;;;;;20.50;100.00;62996.09;5072270;28;20204;-75
2022/08/03 05:07:32;;;;;;;7.50;3.87;;;;;;;20.28;100.00;62972.31;5071271;28;20196;-75
2022/08/03 05:09:59;;;;;;;14.50;3.90;;;;;;;19.38;100.00;62877.59;5071425;28;20345;-75
2022/08/03 05:12:27;;;;;;;5.03;2.70;;;;;;;19.97;100.00;62936.16;5071472;28;20196;-76
2022/08/03 05:14:57;;;;;;;8.43;3.53;;;;;;;20.05;100.00;62950.53;5071712;28;20242;-74
2022/08/03 05:17:23;;;;;;;2.97;2.20;;;;;;;19.89;100.00;62930.09;5070569;28;20204;-75
2022/08/03 05:19:51;;;;;;;7.80;2.40;;;;;;;19.68;100.00;62902.25;5071917;28;20196;-74
2022/08/03 05:22:18;;;;;;;5.23;2.50;;;;;;;19.70;100.00;62909.59;5077849;28;20191;-74
2022/08/03 05:24:47;;;;;;;3.90;2.20;;;;;;;20.01;100.00;62943.63;5078831;28;20219;-76
2022/08/03 05:27:18;;;;;;;2.50;2.20;;;;;;;19.60;100.00;62896.19;5058544;28;20203;-75
2022/08/03 05:29:45;;;;;;;8.70;2.93;;;;;;;20.29;100.00;62973.38;5073036;28;20228;-74
2022/08/03 05:32:14;;;;;;;2.73;2.30;;;;;;;20.59;100.00;63002.69;5077705;28;20314;-73
2022/08/03 05:34:42;;;;;;;8.67;2.40;;;;;;;20.10;100.00;62945.06;5072401;28;20223;-74
2022/08/03 05:37:12;;;;;;;7.20;2.63;;;;;;;20.03;100.00;62945.25;5070776;28;20215;-77
2022/08/03 05:39:42;;;;;;;6.17;2.60;;;;;;;21.00;100.00;63047.59;5071874;28;20581;-77
2022/08/03 05:42:10;;;;;;;12.03;2.93;;;;;;;20.96;100.00;63051.03;5072469;28;20200;-75
2022/08/03 05:44:47;;;;;;;6.17;2.83;;;;;;;21.54;100.00;63104.97;5079329;28;20285;-76
2022/08/03 05:47:17;;;;;;;4.30;3.30;;;;;;;21.15;100.00;63067.94;5079657;28;20294;-75
2022/08/03 05:49:47;;;;;;;11.43;3.97;;;;;;;21.30;100.00;63079.53;5078428;28;20219;-74
2022/08/03 05:52:16;;;;;;;15.20;4.87;;;;;;;21.78;100.00;63125.75;5077700;28;20227;-74
2022/08/03 05:54:43;;;;;;;21.80;6.67;;;;;;;21.97;100.00;63151.56;5078110;28;20196;-76
2022/08/03 05:57:13;;;;;;;4.47;3.50;;;;;;;22.22;100.00;63175.47;5077766;28;20196;-76
2022/08/03 05:59:41;;;;;;;13.70;4.23;;;;;;;21.82;100.00;63135.31;5084390;28;20187;-75
2022/08/03 06:02:08;;;;;;;8.67;3.83;;;;;;;21.99;100.00;63156.31;5097528;28;20584;-75
2022/08/03 06:04:40;;;;;;;9.53;4.40;;;;;;;22.24;100.00;63180.78;5077568;28;20682;-76
2022/08/03 06:07:07;;;;;;;7.50;4.00;;;;;;;22.70;100.00;63229.56;5078253;28;20200;-75
2022/08/03 06:09:36;;;;;;;10.03;5.33;;;;;;;23.14;100.00;63274.66;5077888;28;20224;-76
2022/08/03 06:12:03;;;;;;;15.10;4.23;;;;;;;23.09;100.00;63274.44;5091083;28;20650;-74
2022/08/03 06:14:30;;;;;;;14.50;4.20;;;;;;;23.25;100.00;63289.72;5077939;28;20203;-75
2022/08/03 06:16:59;;;;;;;15.67;3.77;;;;;;;23.26;100.00;63292.88;5078188;28;20200;-75
2022/08/03 06:19:26;;;;;;;8.93;3.53;;;;;;;23.01;100.00;63268.34;5077660;28;20543;-75
2022/08/03 06:21:54;;;;;;;15.10;3.67;;;;;;;23.38;100.00;63308.50;5078188;28;20642;-74
2022/08/03 06:24:24;;;;;;;7.07;3.03;;;;;;;23.77;100.00;63345.03;5077930;28;20724;-74
2022/08/03 06:26:52;;;;;;;13.33;3.73;;;;;;;24.02;100.00;63372.72;5078404;28;20662;-74
2022/08/03 06:29:19;;;;;;;9.70;3.07;;;;;;;24.10;100.00;63381.41;5078007;28;20228;-73
2022/08/03 06:31:46;;;;;;;14.37;3.37;;;;;;;24.41;100.00;63413.97;5077951;28;20192;-75
2022/08/03 06:34:13;;;;;;;7.37;3.30;;;;;;;24.44;100.00;63417.22;5077924;28;20603;-75
2022/08/03 06:36:40;;;;;;;24.80;3.80;;;;;;;24.23;100.00;63398.13;5077906;28;20278;-76
2022/08/03 06:39:09;;;;;;;10.87;3.83;;;;;;;24.18;100.00;63392.69;5077483;28;20203;-76
2022/08/03 06:41:39;;;;;;;10.90;3.40;;;;;;;24.41;100.00;63416.56;5077458;28;20200;-75
2022/08/03 06:44:06;;;;;;;18.37;3.60;;;;;;;24.48;100.00;63424.16;5077755;28;20296;-75
2022/08/03 06:46:32;;;;;;;12.20;3.37;;;;;;;25.07;100.00;63490.84;5096081;28;20197;-75
2022/08/03 06:49:00;;;;;;;13.00;3.20;;;;;;;25.08;100.00;63486.72;5096624;28;20222;-74
2022/08/03 06:51:28;;;;;;;8.30;3.70;;;;;;;25.25;100.00;63507.81;5093915;28;20196;-75
2022/08/03 06:53:55;;;;;;;15.50;3.70;;;;;;;25.40;100.00;63526.13;5083637;28;20294;-76
2022/08/03 06:56:24;;;;;;;7.53;3.10;;;;;;;25.51;100.00;63533.44;5091964;28;20225;-74
2022/08/03 06:58:51;;;;;;;14.47;3.63;;;;;;;25.50;100.00;63532.34;5073810;28;20203;-76
2022/08/03 07:04:04;;;;;;;12.70;3.97;;;;;;;26.03;100.00;63594.06;5078690;28;20207;-74
2022/08/03 07:06:31;;;;;;;8.37;4.00;;;;;;;26.07;100.00;63599.00;5083787;28;20243;-76
2022/08/03 07:08:58;;;;;;;11.10;3.87;;;;;;;25.49;100.00;63533.88;5093427;28;20284;-76
2022/08/03 07:11:27;;;;;;;11.57;3.40;;;;;;;25.54;100.00;63541.91;5083670;28;20200;-76
2022/08/03 07:13:55;;;;;;;6.37;4.00;;;;;;;25.65;100.00;63548.66;5090692;28;20279;-74
2022/08/03 07:16:24;;;;;;;15.80;3.93;;;;;;;25.32;100.00;63512.78;5093853;28;20302;-76
2022/08/03 07:18:51;;;;;;;19.67;4.50;;;;;;;26.32;100.00;63620.94;5093974;28;20555;-75
2022/08/03 07:21:18;;;;;;;12.33;3.80;;;;;;;26.75;100.00;63672.41;5082525;28;20196;-76
2022/08/03 07:23:45;;;;;;;9.93;3.80;;;;;;;26.97;100.00;63696.34;5073821;28;20200;-75
2022/08/03 07:26:12;;;;;;;12.67;4.53;;;;;;;25.98;100.00;63584.50;5087024;28;20220;-75
2022/08/03 07:28:40;;;;;;;12.57;3.53;;;;;;;26.50;100.00;63640.50;5077220;28;20596;-74
2022/08/03 07:31:07;;;;;;;31.57;5.27;;;;;;;25.76;100.00;63563.22;5081171;28;20617;-75
2022/08/03 07:33:35;;;;;;;7.40;4.13;;;;;;;26.44;100.00;63628.22;5084739;28;20236;-75
2022/08/03 07:36:04;;;;;;;15.53;3.90;;;;;;;26.82;100.00;63680.03;5083678;28;20231;-75
2022/08/03 07:38:31;;;;;;;8.37;3.27;;;;;;;27.06;100.00;63705.59;5093255;28;20209;-74
2022/08/03 07:40:58;;;;;;;11.93;3.90;;;;;;;27.25;100.00;63716.31;5092146;28;20203;-74
2022/08/03 07:43:25;;;;;;;9.43;3.70;;;;;;;27.74;100.00;63768.56;5092790;28;20274;-76
2022/08/03 07:45:54;;;;;;;8.00;4.30;;;;;;;27.09;100.00;63709.38;5087777;28;20208;-73
2022/08/03 07:48:21;;;;;;;6.20;3.60;;;;;;;26.84;100.00;63682.19;5073311;28;20198;-75
2022/08/03 07:50:49;;;;;;;5.17;3.30;;;;;;;27.07;100.00;63701.97;5072273;28;20257;-78
2022/08/03 07:53:18;;;;;;;6.37;3.67;;;;;;;26.87;100.00;63685.44;5086365;28;20196;-76
2022/08/03 07:55:45;;;;;;;8.73;3.80;;;;;;;27.13;100.00;63705.88;5086275;28;20305;-76
2022/08/03 07:58:16;;;;;;;7.70;3.80;;;;;;;27.74;100.00;63771.19;5085406;28;20322;-74
2022/08/03 08:00:44;;;;;;;7.00;3.50;;;;;;;28.19;100.00;63823.34;5086538;28;20199;-74
2022/08/03 08:03:13;;;;;;;5.80;3.00;;;;;;;28.22;100.00;63829.25;5084101;28;20720;-75
2022/08/03 08:05:41;;;;;;;4.70;3.10;;;;;;;28.30;100.00;63837.41;5084178;28;20200;-74
2022/08/03 08:08:08;;;;;;;9.57;3.03;;;;;;;28.18;100.00;63821.72;5074898;28;20238;-76
2022/08/03 08:10:35;;;;;;;5.80;3.23;;;;;;;28.38;100.00;63843.50;5092380;28;20235;-75
2022/08/03 08:13:02;;;;;;;6.20;4.40;;;;;;;28.85;100.00;63894.72;5093039;28;20264;-74
2022/08/03 08:15:30;;;;;;;7.00;3.00;;;;;;;28.85;100.00;63897.34;5083953;28;20211;-76
2022/08/03 08:18:02;;;;;;;6.60;3.07;;;;;;;28.85;100.00;63899.41;5089465;28;20247;-76
2022/08/03 08:20:32;;;;;;;5.17;3.23;;;;;;;29.05;100.00;63916.50;5092519;28;20317;-74
2022/08/03 08:23:02;;;;;;;5.30;3.33;;;;;;;28.79;100.00;63885.03;5091670;28;20195;-74
2022/08/03 08:25:30;;;;;;;7.93;2.77;;;;;;;29.32;100.00;63939.63;5088724;28;20225;-77
2022/08/03 08:27:57;;;;;;;8.37;3.57;;;;;;;29.29;100.00;63946.84;5072605;28;20201;-74
2022/08/03 08:30:25;;;;;;;6.87;3.90;;;;;;;29.53;100.00;63967.75;5085047;28;20269;-74
2022/08/03 08:32:52;;;;;;;3.20;2.77;;;;;;;29.64;100.00;63980.28;5081292;28;20647;-74
2022/08/03 08:35:19;;;;;;;5.83;2.93;;;;;;;29.91;100.00;64003.94;5077930;28;20668;-74
2022/08/03 08:37:50;;;;;;;4.67;2.80;;;;;;;30.22;100.00;64043.00;5072159;28;20202;-75
2022/08/03 08:40:21;;;;;;;7.23;3.00;;;;;;;30.14;100.00;64034.28;5072201;28;20234;-76
2022/08/03 08:42:49;;;;;;;4.83;3.07;;;;;;;29.75;100.00;63992.31;5091904;28;20593;-75
2022/08/03 08:45:18;;;;;;;3.57;2.47;;;;;;;29.71;100.00;63987.38;5088866;28;20218;-75
2022/08/03 08:47:47;;;;;;;5.70;2.80;;;;;;;29.73;100.00;63992.19;5081975;28;20264;-74
2022/08/03 08:50:15;;;;;;;5.43;3.00;;;;;;;29.84;100.00;64002.09;5091833;28;20247;-75
2022/08/03 08:52:46;;;;;;;4.63;2.80;;;;;;;30.00;100.00;64021.66;5087618;28;20198;-76
2022/08/03 08:55:20;;;;;;;5.23;2.90;;;;;;;30.43;100.00;64065.38;5082843;28;20285;-75
2022/08/03 08:57:50;;;;;;;4.40;3.00;;;;;;;30.65;100.00;64089.91;5077933;28;20282;-74
2022/08/03 09:00:20;;;;;;;4.23;2.90;;;;;;;30.79;100.00;64104.66;5071600;28;20243;-75
2022/08/03 09:02:47;;;;;;;4.70;3.07;;;;;;;31.08;100.00;64130.50;5084957;28;20203;-78
2022/08/03 09:05:15;;;;;;;5.33;2.93;;;;;;;31.08;100.00;64136.31;5072061;28;20207;-76
2022/08/03 09:07:43;;;;;;;6.53;2.90;;;;;;;30.58;100.00;64082.28;5072184;28;20204;-76
2022/08/03 09:10:11;;;;;;;7.53;4.20;;;;;;;31.72;100.00;64202.47;5071783;28;20213;-75
2022/08/03 09:12:43;;;;;;;7.13;3.40;;;;;;;31.53;100.00;64182.81;5071819;28;20205;-75
2022/08/03 09:15:22;;;;;;;7.20;3.17;;;;;;;31.58;100.00;64190.38;5076384;28;20191;-75
2022/08/03 09:17:50;;;;;;;8.30;3.70;;;;;;;30.40;100.00;64067.91;5077414;28;20207;-77
2022/08/03 09:20:19;;;;;;;7.13;3.30;;;;;;;31.32;100.00;64159.88;5058581;28;20285;-76
2022/08/03 09:22:54;;;;;;;7.60;2.90;;;;;;;31.00;100.00;64124.41;5071616;28;20204;-76
2022/08/03 09:25:28;;;;;;;9.97;3.53;;;;;;;31.30;100.00;64159.78;5072528;28;20213;-75
2022/08/03 09:28:07;;;;;;;9.07;2.90;;;;;;;31.91;100.00;64226.41;5089023;28;20196;-76
2022/08/03 09:30:37;;;;;;;6.37;2.70;;;;;;;31.85;100.00;64219.31;5072048;28;20239;-75
2022/08/03 09:33:05;;;;;;;5.27;2.87;;;;;;;31.95;100.00;64227.63;5075533;28;20278;-76
2022/08/03 09:35:33;;;;;;;7.77;2.93;;;;;;;30.73;100.00;64100.72;5091672;28;20200;-75
2022/08/03 09:38:12;;;;;;;4.30;2.53;;;;;;;31.44;100.00;64175.09;5090949;28;20200;-76
2022/08/03 09:40:39;;;;;;;2.60;2.10;;;;;;;31.90;100.00;64220.03;5077967;28;20614;-75
2022/08/03 09:43:12;;;;;;;2.20;2.10;;;;;;;31.88;100.00;64223.13;5077637;28;20640;-75
2022/08/03 09:45:40;;;;;;;4.93;2.00;;;;;;;31.82;100.00;64221.84;5063106;28;20651;-75
2022/08/03 09:48:24;;;;;;;3.10;2.20;;;;;;;32.33;100.00;64272.31;5084365;28;20198;-75
2022/08/03 09:50:52;;;;;;;3.03;2.50;;;;;;;32.24;100.00;64273.03;5071904;28;20221;-77
2022/08/03 09:53:20;;;;;;;4.07;2.20;;;;;;;32.22;100.00;64255.00;5083920;28;20203;-75
2022/08/03 09:55:52;;;;;;;10.07;2.63;;;;;;;32.10;100.00;64244.00;5073218;28;20196;-77
2022/08/03 09:58:23;;;;;;;5.37;2.50;;;;;;;32.28;100.00;64266.84;5081991;28;20193;-74
2022/08/03 10:00:55;;;;;;;4.43;2.20;;;;;;;32.98;100.00;64342.28;5074420;28;20196;-77
2022/08/03 10:03:23;;;;;;;8.90;3.10;;;;;;;32.66;100.00;64307.81;5083414;28;20280;-74
2022/08/03 10:05:52;;;;;;;17.53;3.80;;;;;;;32.17;100.00;64260.13;5090375;28;20658;-76
2022/08/03 10:08:20;;;;;;;2.47;2.27;;;;;;;32.54;100.00;64294.19;5090836;28;20196;-75
2022/08/03 10:10:52;;;;;;;4.03;2.47;;;;;;;32.62;100.00;64303.47;5090182;28;20221;-76
2022/08/03 10:13:22;;;;;;;4.97;2.53;;;;;;;31.37;100.00;64167.97;5090251;28;20197;-77
2022/08/03 10:15:51;;;;;;;9.77;2.43;;;;;;;32.17;100.00;64254.84;5078486;28;20581;-76
2022/08/03 10:18:18;;;;;;;12.97;3.43;;;;;;;32.41;100.00;64283.13;5084182;28;20252;-75
2022/08/03 10:20:52;;;;;;;9.53;2.70;;;;;;;32.65;100.00;64306.75;5071064;28;20210;-74
2022/08/03 10:23:20;;;;;;;5.63;2.10;;;;;;;33.30;95.65;64382.56;5067635;28;20198;-75
2022/08/03 10:25:52;;;;;;;6.70;2.23;;;;;;;32.19;91.19;64259.66;5081069;28;20234;-75
2022/08/03 10:28:20;;;;;;;2.10;1.90;;;;;;;32.81;94.99;64318.41;5086798;28;20210;-75
2022/08/03 10:30:53;;;;;;;3.20;2.20;;;;;;;32.97;96.93;64341.19;5086182;28;20216;-74
2022/08/03 10:33:22;;;;;;;4.13;2.00;;;;;;;32.92;95.94;64335.72;5089078;28;20710;-75
2022/08/03 10:35:55;;;;;;;4.50;2.10;;;;;;;33.41;94.25;64389.28;5074971;28;20224;-75
2022/08/03 10:41:12;;;;;;;3.33;2.00;;;;;;;33.99;87.64;64452.75;5073322;28;20207;-76
2022/08/03 10:43:47;;;;;;;5.30;2.50;;;;;;;33.23;87.57;64364.88;5074438;28;20582;-76
2022/08/03 10:46:22;;;;;;;6.50;2.27;;;;;;;33.73;87.82;64423.75;5074332;28;20195;-76
2022/08/03 10:48:52;;;;;;;3.30;1.90;;;;;;;33.99;84.67;64447.47;5074344;28;20567;-77
2022/08/03 10:51:20;;;;;;;2.57;2.17;;;;;;;34.01;82.26;64459.69;5067428;28;20235;-75
2022/08/03 10:53:49;;;;;;;2.27;2.10;;;;;;;34.02;84.87;64458.69;5093799;28;20210;-76
2022/08/03 10:59:57;;;;;;;2.77;2.00;;;;;;;32.72;88.94;64314.38;5076220;28;20206;-75
2022/08/03 11:03:05;;;;;;;2.47;2.20;;;;;;;33.43;96.04;64390.94;5078380;28;20199;-77
2022/08/03 11:05:36;;;;;;;4.80;2.47;;;;;;;33.60;85.15;64409.53;5075270;28;20617;-75
2022/08/03 11:08:22;;;;;;;5.43;2.10;;;;;;;33.93;89.67;64446.19;5085542;28;20552;-75
2022/08/03 11:10:51;;;;;;;2.20;1.90;;;;;;;34.05;83.93;64459.31;5069138;28;20222;-74
2022/08/03 11:13:21;;;;;;;2.00;1.90;;;;;;;34.02;85.14;64456.06;5081904;28;20203;-75
2022/08/03 11:15:51;;;;;;;2.60;1.97;;;;;;;33.90;85.02;64448.19;5074072;28;20651;-75
2022/08/03 11:18:21;;;;;;;3.73;1.90;;;;;;;33.14;87.81;64359.78;5073892;28;20616;-75
2022/08/03 11:20:50;;;;;;;1.90;1.80;;;;;;;33.37;92.14;64384.38;5067965;28;20202;-75
2022/08/03 11:23:22;;;;;;;1.93;1.83;;;;;;;33.71;91.70;64419.47;5096581;28;20290;-76
2022/08/03 11:26:13;;;;;;;5.67;2.07;;;;;;;33.90;93.76;64442.91;5093711;28;20223;-76
2022/08/03 11:28:43;;;;;;;2.30;2.10;;;;;;;33.54;88.04;64400.34;5089839;28;20205;-75
2022/08/03 11:31:45;;;;;;;5.83;2.20;;;;;;;32.54;91.27;64297.34;5093626;28;20694;-77
2022/08/03 11:34:17;;;;;;;8.53;2.63;;;;;;;32.09;94.16;64245.53;5094592;28;20251;-76
2022/08/03 11:37:21;;;;;;;2.60;2.17;;;;;;;32.31;100.00;64269.56;5075338;28;20729;-76
2022/08/03 11:39:51;;;;;;;3.70;2.03;;;;;;;32.52;92.67;64292.53;5001431;28;20203;-76
2022/08/03 11:42:47;;;;;;;12.30;2.10;;;;;;;33.81;90.82;64433.06;5011745;28;20666;-75
2022/08/03 11:45:18;;;;;;;3.93;2.20;;;;;;;34.02;91.62;64458.69;5064545;28;20286;-77
2022/08/03 11:47:45;;;;;;;3.87;2.07;;;;;;;33.63;92.29;64412.81;5092620;28;20615;-75
2022/08/03 11:50:15;;;;;;;2.20;2.00;;;;;;;34.58;84.77;64516.25;5092976;28;20222;-76
2022/08/03 11:52:42;;;;;;;3.70;2.37;;;;;;;34.48;83.33;64502.66;5092066;28;20191;-74
2022/08/03 11:55:15;;;;;;;4.73;2.07;;;;;;;34.02;90.93;64455.50;5092807;28;20230;-76